VOZ735 YMML-YBCG
Flight info
| Callsign | VOZ735 |
|---|---|
| Flight time | 1h 48m |
| Altitude | 35000 |
| Route | ML H66 URKER Y54 BERNI Y43 GREAV DCT GOMOL |
| Aircraft | B738/M-SDE2E3FGHIRWXY/LB1 |
Departure
| Time | 2026-05-08 01:42 |
|---|---|
| Airport | Melbourne Airport (YMML) |
Arrival
| Time | 2026-05-08 03:30 |
|---|---|
| Airport | Gold Coast Airport (YBCG) |
| Time | Latitude | Longitude | Altitude | Speed | Heading |
|---|---|---|---|---|---|
| 2026-05-08 00:59 | -37.67079 | 144.84526 | 387 ft | 0 kts | 178° |
| 2026-05-08 01:28 | -37.67073 | 144.84525 | 387 ft | 4 kts | 179° |
| 2026-05-08 01:29 | -37.67047 | 144.84527 | 388 ft | 4 kts | 193° |
| 2026-05-08 01:29 | -37.67023 | 144.84540 | 389 ft | 4 kts | 225° |
| 2026-05-08 01:29 | -37.67014 | 144.84559 | 389 ft | 0 kts | 266° |
| 2026-05-08 01:34 | -37.67014 | 144.84557 | 389 ft | 3 kts | 266° |
| 2026-05-08 01:34 | -37.67018 | 144.84500 | 388 ft | 7 kts | 261° |
| 2026-05-08 01:34 | -37.67036 | 144.84445 | 387 ft | 7 kts | 244° |
| 2026-05-08 01:34 | -37.67050 | 144.84388 | 386 ft | 7 kts | 258° |
| 2026-05-08 01:35 | -37.67058 | 144.84331 | 385 ft | 7 kts | 261° |
| 2026-05-08 01:35 | -37.67052 | 144.84275 | 384 ft | 6 kts | 297° |
| 2026-05-08 01:35 | -37.67018 | 144.84240 | 385 ft | 7 kts | 336° |
| 2026-05-08 01:35 | -37.66951 | 144.84221 | 386 ft | 11 kts | 349° |
| 2026-05-08 01:36 | -37.66880 | 144.84205 | 388 ft | 10 kts | 354° |
| 2026-05-08 01:36 | -37.66810 | 144.84197 | 390 ft | 10 kts | 350° |
| 2026-05-08 01:36 | -37.66743 | 144.84189 | 393 ft | 10 kts | 10° |
| 2026-05-08 01:36 | -37.66699 | 144.84246 | 395 ft | 9 kts | 75° |
| 2026-05-08 01:37 | -37.66688 | 144.84326 | 393 ft | 9 kts | 81° |
| 2026-05-08 01:37 | -37.66678 | 144.84405 | 396 ft | 9 kts | 81° |
| 2026-05-08 01:37 | -37.66669 | 144.84481 | 397 ft | 9 kts | 83° |
| 2026-05-08 01:37 | -37.66661 | 144.84554 | 393 ft | 8 kts | 82° |
| 2026-05-08 01:38 | -37.66652 | 144.84627 | 399 ft | 8 kts | 81° |
| 2026-05-08 01:38 | -37.66643 | 144.84696 | 400 ft | 8 kts | 81° |
| 2026-05-08 01:38 | -37.66628 | 144.84762 | 399 ft | 8 kts | 62° |
| 2026-05-08 01:38 | -37.66587 | 144.84798 | 403 ft | 7 kts | 12° |
| 2026-05-08 01:39 | -37.66536 | 144.84794 | 405 ft | 7 kts | 346° |
| 2026-05-08 01:39 | -37.66489 | 144.84778 | 407 ft | 7 kts | 347° |
| 2026-05-08 01:39 | -37.66441 | 144.84776 | 404 ft | 7 kts | 2° |
| 2026-05-08 01:39 | -37.66390 | 144.84779 | 409 ft | 8 kts | 3° |
| 2026-05-08 01:40 | -37.66337 | 144.84782 | 409 ft | 7 kts | 3° |
| 2026-05-08 01:40 | -37.66286 | 144.84786 | 412 ft | 7 kts | 4° |
| 2026-05-08 01:40 | -37.66239 | 144.84778 | 408 ft | 7 kts | 321° |
| 2026-05-08 01:40 | -37.66223 | 144.84721 | 409 ft | 7 kts | 276° |
| 2026-05-08 01:41 | -37.66219 | 144.84636 | 412 ft | 23 kts | 272° |
| 2026-05-08 01:41 | -37.66197 | 144.84169 | 411 ft | 86 kts | 272° |
| 2026-05-08 01:41 | -37.66139 | 144.83176 | 407 ft | 142 kts | 272° |
| 2026-05-08 01:41 | -37.66012 | 144.81814 | 828 ft | 159 kts | 273° |
| 2026-05-08 01:42 | -37.65920 | 144.80433 | 1661 ft | 160 kts | 271° |
| 2026-05-08 01:42 | -37.65787 | 144.78982 | 2331 ft | 169 kts | 271° |
| 2026-05-08 01:42 | -37.65701 | 144.77407 | 2688 ft | 195 kts | 266° |
| 2026-05-08 01:42 | -37.65643 | 144.75602 | 3059 ft | 214 kts | 266° |
| 2026-05-08 01:43 | -37.65561 | 144.73614 | 3316 ft | 238 kts | 267° |
| 2026-05-08 01:43 | -37.65453 | 144.71477 | 3977 ft | 245 kts | 268° |
| 2026-05-08 01:43 | -37.65335 | 144.69338 | 4915 ft | 245 kts | 267° |
| 2026-05-08 01:43 | -37.64989 | 144.67191 | 5644 ft | 262 kts | 289° |
| 2026-05-08 01:44 | -37.63767 | 144.65385 | 6407 ft | 284 kts | 320° |
| 2026-05-08 01:44 | -37.61958 | 144.64253 | 7134 ft | 296 kts | 335° |
| 2026-05-08 01:44 | -37.59962 | 144.63481 | 7798 ft | 304 kts | 339° |
| 2026-05-08 01:44 | -37.57926 | 144.62767 | 8485 ft | 310 kts | 340° |
| 2026-05-08 01:45 | -37.55766 | 144.62344 | 9160 ft | 322 kts | 2° |
| 2026-05-08 01:45 | -37.53601 | 144.63123 | 9833 ft | 328 kts | 32° |
| 2026-05-08 01:45 | -37.51878 | 144.64968 | 10411 ft | 330 kts | 54° |
| 2026-05-08 01:45 | -37.50431 | 144.67329 | 10582 ft | 351 kts | 58° |
| 2026-05-08 01:46 | -37.48953 | 144.69897 | 10746 ft | 372 kts | 58° |
| 2026-05-08 01:46 | -37.47404 | 144.72562 | 10918 ft | 391 kts | 56° |
| 2026-05-08 01:46 | -37.45613 | 144.75224 | 11338 ft | 403 kts | 50° |
| 2026-05-08 01:46 | -37.43657 | 144.77807 | 11945 ft | 408 kts | 49° |
| 2026-05-08 01:47 | -37.41655 | 144.80359 | 12595 ft | 412 kts | 48° |
| 2026-05-08 01:47 | -37.39628 | 144.82937 | 13276 ft | 415 kts | 48° |
| 2026-05-08 01:47 | -37.37597 | 144.85543 | 13951 ft | 418 kts | 48° |
| 2026-05-08 01:48 | -37.33548 | 144.90806 | 15208 ft | 423 kts | 48° |
| 2026-05-08 01:48 | -37.31501 | 144.93485 | 15856 ft | 426 kts | 48° |
| 2026-05-08 01:48 | -37.29437 | 144.96192 | 16455 ft | 430 kts | 48° |
| 2026-05-08 01:48 | -37.27349 | 144.98929 | 17041 ft | 434 kts | 48° |
| 2026-05-08 01:49 | -37.25246 | 145.01684 | 17662 ft | 438 kts | 48° |
| 2026-05-08 01:49 | -37.23122 | 145.04464 | 18162 ft | 443 kts | 48° |
| 2026-05-08 01:49 | -37.21701 | 145.06322 | 18527 ft | 446 kts | 47° |
| 2026-05-08 01:49 | -37.19541 | 145.09144 | 19037 ft | 449 kts | 47° |
| 2026-05-08 01:50 | -37.17365 | 145.11983 | 19554 ft | 452 kts | 47° |
| 2026-05-08 01:50 | -37.15177 | 145.14837 | 20059 ft | 456 kts | 47° |
| 2026-05-08 01:50 | -37.12966 | 145.17718 | 20545 ft | 459 kts | 47° |
| 2026-05-08 01:50 | -37.10740 | 145.20616 | 21024 ft | 463 kts | 47° |
| 2026-05-08 01:51 | -37.08499 | 145.23529 | 21502 ft | 466 kts | 47° |
| 2026-05-08 01:51 | -37.06216 | 145.26374 | 21932 ft | 470 kts | 44° |
| 2026-05-08 01:51 | -37.03735 | 145.29077 | 22376 ft | 474 kts | 40° |
| 2026-05-08 01:51 | -37.01163 | 145.31692 | 22801 ft | 478 kts | 39° |
| 2026-05-08 01:52 | -36.98549 | 145.34288 | 23228 ft | 481 kts | 39° |
| 2026-05-08 01:52 | -36.95906 | 145.36915 | 23667 ft | 484 kts | 39° |
| 2026-05-08 01:52 | -36.93299 | 145.39530 | 24040 ft | 487 kts | 39° |
| 2026-05-08 01:52 | -36.90660 | 145.42206 | 24430 ft | 488 kts | 40° |
| 2026-05-08 01:53 | -36.88021 | 145.44904 | 24818 ft | 490 kts | 40° |
| 2026-05-08 01:53 | -36.85378 | 145.47619 | 25155 ft | 493 kts | 40° |
| 2026-05-08 01:53 | -36.82718 | 145.50356 | 25489 ft | 496 kts | 40° |
| 2026-05-08 01:53 | -36.80052 | 145.53099 | 25841 ft | 498 kts | 40° |
| 2026-05-08 01:54 | -36.77400 | 145.55825 | 26142 ft | 501 kts | 40° |
| 2026-05-08 01:54 | -36.74692 | 145.58604 | 26449 ft | 504 kts | 40° |
| 2026-05-08 01:54 | -36.71970 | 145.61394 | 26769 ft | 506 kts | 40° |
| 2026-05-08 01:54 | -36.69241 | 145.64187 | 27084 ft | 508 kts | 40° |
| 2026-05-08 01:55 | -36.66530 | 145.66959 | 27376 ft | 510 kts | 40° |
| 2026-05-08 01:55 | -36.63779 | 145.69769 | 27666 ft | 513 kts | 40° |
| 2026-05-08 01:55 | -36.61014 | 145.72589 | 27934 ft | 515 kts | 40° |
| 2026-05-08 01:55 | -36.58230 | 145.75428 | 28181 ft | 518 kts | 40° |
| 2026-05-08 01:56 | -36.55431 | 145.78277 | 28454 ft | 520 kts | 40° |
| 2026-05-08 01:56 | -36.52628 | 145.81129 | 28789 ft | 521 kts | 40° |
| 2026-05-08 01:56 | -36.49813 | 145.83990 | 29149 ft | 522 kts | 40° |
| 2026-05-08 01:56 | -36.47002 | 145.86844 | 29556 ft | 520 kts | 40° |
| 2026-05-08 01:57 | -36.44199 | 145.89688 | 29979 ft | 519 kts | 40° |
| 2026-05-08 01:57 | -36.41397 | 145.92527 | 30348 ft | 519 kts | 40° |
| 2026-05-08 01:57 | -36.38629 | 145.95330 | 30658 ft | 519 kts | 40° |
| 2026-05-08 01:57 | -36.35830 | 145.98160 | 31001 ft | 518 kts | 40° |
| 2026-05-08 01:58 | -36.33037 | 146.00983 | 31356 ft | 516 kts | 40° |
| 2026-05-08 01:58 | -36.30255 | 146.03792 | 31695 ft | 515 kts | 40° |
| 2026-05-08 01:58 | -36.27472 | 146.06598 | 32089 ft | 514 kts | 40° |
| 2026-05-08 01:58 | -36.24698 | 146.09394 | 32405 ft | 513 kts | 40° |
| 2026-05-08 01:59 | -36.21929 | 146.12182 | 32725 ft | 512 kts | 40° |
| 2026-05-08 01:59 | -36.19199 | 146.14928 | 33051 ft | 512 kts | 40° |
| 2026-05-08 01:59 | -36.16440 | 146.17701 | 33360 ft | 511 kts | 40° |
| 2026-05-08 01:59 | -36.13680 | 146.20471 | 33753 ft | 508 kts | 40° |
| 2026-05-08 02:00 | -36.10942 | 146.23217 | 34144 ft | 505 kts | 40° |
| 2026-05-08 02:00 | -36.08210 | 146.25955 | 34449 ft | 504 kts | 39° |
| 2026-05-08 02:00 | -36.05485 | 146.28683 | 34713 ft | 503 kts | 39° |
| 2026-05-08 02:00 | -36.02760 | 146.31409 | 34990 ft | 502 kts | 39° |
| 2026-05-08 02:01 | -36.00047 | 146.34120 | 35203 ft | 502 kts | 39° |
| 2026-05-08 02:01 | -35.97356 | 146.36807 | 35217 ft | 504 kts | 39° |
| 2026-05-08 02:01 | -35.91899 | 146.42248 | 35228 ft | 501 kts | 39° |
| 2026-05-08 02:02 | -35.86480 | 146.47641 | 35231 ft | 499 kts | 39° |
| 2026-05-08 02:02 | -35.81120 | 146.52966 | 35227 ft | 497 kts | 39° |
| 2026-05-08 02:03 | -35.75736 | 146.58306 | 35233 ft | 496 kts | 39° |
| 2026-05-08 02:03 | -35.70360 | 146.63628 | 35228 ft | 495 kts | 39° |
| 2026-05-08 02:04 | -35.64977 | 146.68947 | 35231 ft | 496 kts | 39° |
| 2026-05-08 02:04 | -35.59618 | 146.74234 | 35230 ft | 497 kts | 39° |
| 2026-05-08 02:05 | -35.54195 | 146.79574 | 35229 ft | 498 kts | 39° |
| 2026-05-08 02:05 | -35.48772 | 146.84906 | 35244 ft | 499 kts | 38° |
| 2026-05-08 02:06 | -35.43373 | 146.90205 | 35234 ft | 501 kts | 38° |
| 2026-05-08 02:06 | -35.37924 | 146.95535 | 35233 ft | 501 kts | 38° |
| 2026-05-08 02:07 | -35.32463 | 147.00868 | 35224 ft | 501 kts | 38° |
| 2026-05-08 02:07 | -35.27006 | 147.06190 | 35228 ft | 501 kts | 38° |
| 2026-05-08 02:08 | -35.21576 | 147.11478 | 35250 ft | 501 kts | 38° |
| 2026-05-08 02:08 | -35.16114 | 147.16788 | 35228 ft | 500 kts | 38° |
| 2026-05-08 02:09 | -35.10649 | 147.22091 | 35225 ft | 500 kts | 38° |
| 2026-05-08 02:09 | -35.05226 | 147.27344 | 35229 ft | 499 kts | 38° |
| 2026-05-08 02:10 | -34.99783 | 147.32608 | 35231 ft | 498 kts | 38° |
| 2026-05-08 02:10 | -34.94344 | 147.37858 | 35234 ft | 497 kts | 38° |
| 2026-05-08 02:11 | -34.88909 | 147.43095 | 35236 ft | 497 kts | 38° |
| 2026-05-08 02:11 | -34.83471 | 147.48326 | 35228 ft | 497 kts | 38° |
| 2026-05-08 02:12 | -34.78083 | 147.53501 | 35228 ft | 496 kts | 38° |
| 2026-05-08 02:12 | -34.72666 | 147.58693 | 35238 ft | 495 kts | 38° |
| 2026-05-08 02:13 | -34.67246 | 147.63881 | 35226 ft | 495 kts | 37° |
| 2026-05-08 02:13 | -34.61820 | 147.69064 | 35241 ft | 496 kts | 37° |
| 2026-05-08 02:14 | -34.56426 | 147.74208 | 35239 ft | 496 kts | 37° |
| 2026-05-08 02:14 | -34.50985 | 147.79389 | 35231 ft | 497 kts | 37° |
| 2026-05-08 02:15 | -34.45541 | 147.84564 | 35241 ft | 497 kts | 37° |
| 2026-05-08 02:15 | -34.40120 | 147.89707 | 35245 ft | 497 kts | 37° |
| 2026-05-08 02:16 | -34.34670 | 147.94870 | 35231 ft | 498 kts | 37° |
| 2026-05-08 02:16 | -34.29204 | 148.00039 | 35249 ft | 498 kts | 37° |
| 2026-05-08 02:17 | -34.23735 | 148.05202 | 35243 ft | 499 kts | 37° |
| 2026-05-08 02:17 | -34.18258 | 148.10364 | 35244 ft | 499 kts | 36° |
| 2026-05-08 02:18 | -34.12806 | 148.15493 | 35239 ft | 499 kts | 36° |
| 2026-05-08 02:18 | -34.07330 | 148.20637 | 35271 ft | 498 kts | 36° |
| 2026-05-08 02:19 | -34.01837 | 148.25788 | 35251 ft | 499 kts | 36° |
| 2026-05-08 02:19 | -33.96346 | 148.30928 | 35250 ft | 500 kts | 36° |
| 2026-05-08 02:20 | -33.90879 | 148.36037 | 35247 ft | 500 kts | 36° |
| 2026-05-08 02:20 | -33.85367 | 148.41180 | 35245 ft | 501 kts | 36° |
| 2026-05-08 02:21 | -33.79841 | 148.46327 | 35244 ft | 501 kts | 36° |
| 2026-05-08 02:21 | -33.74359 | 148.51424 | 35257 ft | 501 kts | 35° |
| 2026-05-08 02:22 | -33.68830 | 148.56557 | 35254 ft | 501 kts | 35° |
| 2026-05-08 02:22 | -33.63304 | 148.61679 | 35240 ft | 501 kts | 35° |
| 2026-05-08 02:23 | -33.57816 | 148.66757 | 35253 ft | 501 kts | 34° |
| 2026-05-08 02:23 | -33.52288 | 148.71862 | 35257 ft | 501 kts | 34° |
| 2026-05-08 02:24 | -33.46756 | 148.76964 | 35249 ft | 501 kts | 34° |
| 2026-05-08 02:24 | -33.41260 | 148.82025 | 35253 ft | 501 kts | 34° |
| 2026-05-08 02:25 | -33.35723 | 148.87114 | 35253 ft | 501 kts | 34° |
| 2026-05-08 02:25 | -33.30194 | 148.92188 | 35251 ft | 501 kts | 34° |
| 2026-05-08 02:26 | -33.24695 | 148.97225 | 35244 ft | 501 kts | 34° |
| 2026-05-08 02:26 | -33.19160 | 149.02288 | 35248 ft | 501 kts | 34° |
| 2026-05-08 02:27 | -33.13613 | 149.07353 | 35250 ft | 501 kts | 34° |
| 2026-05-08 02:27 | -33.08058 | 149.12417 | 35236 ft | 502 kts | 34° |
| 2026-05-08 02:28 | -33.02524 | 149.17454 | 35240 ft | 503 kts | 34° |
| 2026-05-08 02:28 | -32.96952 | 149.22518 | 35248 ft | 503 kts | 34° |
| 2026-05-08 02:29 | -32.91376 | 149.27577 | 35219 ft | 504 kts | 34° |
| 2026-05-08 02:29 | -32.85796 | 149.32631 | 35236 ft | 504 kts | 34° |
| 2026-05-08 02:30 | -32.80212 | 149.37682 | 35228 ft | 503 kts | 34° |
| 2026-05-08 02:30 | -32.74671 | 149.42685 | 35232 ft | 503 kts | 34° |
| 2026-05-08 02:31 | -32.69086 | 149.47720 | 35233 ft | 502 kts | 33° |
| 2026-05-08 02:31 | -32.63522 | 149.52729 | 35233 ft | 501 kts | 33° |
| 2026-05-08 02:32 | -32.57983 | 149.57708 | 35230 ft | 501 kts | 33° |
| 2026-05-08 02:32 | -32.52392 | 149.62628 | 35221 ft | 499 kts | 31° |
| 2026-05-08 02:33 | -32.46728 | 149.67357 | 35227 ft | 497 kts | 30° |
| 2026-05-08 02:33 | -32.41065 | 149.72059 | 35219 ft | 497 kts | 30° |
| 2026-05-08 02:34 | -32.35447 | 149.76755 | 35214 ft | 496 kts | 30° |
| 2026-05-08 02:34 | -32.29799 | 149.81489 | 35216 ft | 495 kts | 30° |
| 2026-05-08 02:35 | -32.24209 | 149.86169 | 35204 ft | 495 kts | 30° |
| 2026-05-08 02:35 | -32.18587 | 149.90867 | 35228 ft | 494 kts | 30° |
| 2026-05-08 02:36 | -32.13918 | 149.94762 | 35204 ft | 494 kts | 30° |
| 2026-05-08 02:36 | -32.08302 | 149.99439 | 35214 ft | 494 kts | 30° |
| 2026-05-08 02:37 | -32.02679 | 150.04116 | 35205 ft | 493 kts | 30° |
| 2026-05-08 02:37 | -31.97064 | 150.08780 | 35208 ft | 494 kts | 30° |
| 2026-05-08 02:38 | -31.91477 | 150.13413 | 35194 ft | 493 kts | 30° |
| 2026-05-08 02:38 | -31.85859 | 150.18066 | 35209 ft | 493 kts | 30° |
| 2026-05-08 02:39 | -31.80264 | 150.22693 | 35200 ft | 494 kts | 30° |
| 2026-05-08 02:39 | -31.74644 | 150.27328 | 35194 ft | 493 kts | 29° |
| 2026-05-08 02:40 | -31.69010 | 150.31963 | 35203 ft | 493 kts | 29° |
| 2026-05-08 02:40 | -31.63422 | 150.36555 | 35206 ft | 492 kts | 29° |
| 2026-05-08 02:41 | -31.57994 | 150.41504 | 35215 ft | 496 kts | 36° |
| 2026-05-08 02:41 | -31.52871 | 150.46964 | 35208 ft | 497 kts | 37° |
| 2026-05-08 02:42 | -31.47800 | 150.52422 | 35207 ft | 496 kts | 36° |
| 2026-05-08 02:42 | -31.42679 | 150.57840 | 35215 ft | 496 kts | 36° |
| 2026-05-08 02:43 | -31.37522 | 150.63235 | 35192 ft | 496 kts | 35° |
| 2026-05-08 02:43 | -31.32358 | 150.68619 | 35212 ft | 497 kts | 35° |
| 2026-05-08 02:44 | -31.27180 | 150.74012 | 35220 ft | 498 kts | 35° |
| 2026-05-08 02:44 | -31.22027 | 150.79376 | 35221 ft | 499 kts | 35° |
| 2026-05-08 02:45 | -31.16822 | 150.84786 | 35195 ft | 500 kts | 34° |
| 2026-05-08 02:45 | -31.11617 | 150.90188 | 35219 ft | 500 kts | 34° |
| 2026-05-08 02:46 | -31.06443 | 150.95549 | 35220 ft | 502 kts | 34° |
| 2026-05-08 02:46 | -31.01211 | 151.00962 | 35207 ft | 503 kts | 34° |
| 2026-05-08 02:47 | -30.95955 | 151.06392 | 35217 ft | 503 kts | 33° |
| 2026-05-08 02:47 | -30.90737 | 151.11775 | 35205 ft | 504 kts | 33° |
| 2026-05-08 02:48 | -30.85473 | 151.17195 | 35196 ft | 505 kts | 33° |
| 2026-05-08 02:48 | -30.80201 | 151.22617 | 35187 ft | 505 kts | 33° |
| 2026-05-08 02:49 | -30.74921 | 151.28040 | 35178 ft | 505 kts | 33° |
| 2026-05-08 02:49 | -30.69664 | 151.33429 | 35175 ft | 505 kts | 33° |
| 2026-05-08 02:50 | -30.64375 | 151.38844 | 35168 ft | 505 kts | 32° |
| 2026-05-08 02:50 | -30.59116 | 151.44219 | 35134 ft | 506 kts | 32° |
| 2026-05-08 02:51 | -30.53830 | 151.49615 | 35145 ft | 505 kts | 32° |
| 2026-05-08 02:51 | -30.48550 | 151.54996 | 35149 ft | 504 kts | 32° |
| 2026-05-08 02:52 | -30.43296 | 151.60345 | 35137 ft | 504 kts | 32° |
| 2026-05-08 02:52 | -30.38076 | 151.65815 | 35109 ft | 509 kts | 35° |
| 2026-05-08 02:53 | -30.33131 | 151.71714 | 35117 ft | 511 kts | 37° |
| 2026-05-08 02:53 | -30.28243 | 151.77686 | 35120 ft | 510 kts | 37° |
| 2026-05-08 02:54 | -30.23362 | 151.83573 | 35109 ft | 509 kts | 36° |
| 2026-05-08 02:54 | -30.18424 | 151.89466 | 35115 ft | 509 kts | 36° |
| 2026-05-08 02:55 | -30.11050 | 151.98235 | 35097 ft | 509 kts | 36° |
| 2026-05-08 02:56 | -30.06111 | 152.04104 | 35088 ft | 510 kts | 36° |
| 2026-05-08 02:56 | -30.01160 | 152.09981 | 35107 ft | 510 kts | 36° |
| 2026-05-08 02:57 | -29.96226 | 152.15827 | 35082 ft | 511 kts | 36° |
| 2026-05-08 02:57 | -29.91249 | 152.21718 | 35069 ft | 512 kts | 35° |
| 2026-05-08 02:58 | -29.86267 | 152.27615 | 35089 ft | 512 kts | 36° |
| 2026-05-08 02:58 | -29.81342 | 152.33582 | 35076 ft | 513 kts | 37° |
| 2026-05-08 02:59 | -29.76482 | 152.39516 | 35080 ft | 511 kts | 36° |
| 2026-05-08 02:59 | -29.71583 | 152.45470 | 35076 ft | 510 kts | 36° |
| 2026-05-08 03:00 | -29.66691 | 152.51389 | 35063 ft | 510 kts | 36° |
| 2026-05-08 03:00 | -29.61821 | 152.57271 | 35074 ft | 510 kts | 36° |
| 2026-05-08 03:01 | -29.56916 | 152.63187 | 35066 ft | 509 kts | 35° |
| 2026-05-08 03:01 | -29.52028 | 152.69077 | 35077 ft | 506 kts | 35° |
| 2026-05-08 03:01 | -29.49639 | 152.71967 | 35061 ft | 490 kts | 35° |
| 2026-05-08 03:02 | -29.47351 | 152.74730 | 35062 ft | 475 kts | 34° |
| 2026-05-08 03:02 | -29.45103 | 152.77434 | 35002 ft | 462 kts | 34° |
| 2026-05-08 03:02 | -29.42899 | 152.80077 | 34800 ft | 454 kts | 33° |
| 2026-05-08 03:02 | -29.40576 | 152.82406 | 34230 ft | 432 kts | 17° |
| 2026-05-08 03:03 | -29.37898 | 152.83818 | 32950 ft | 424 kts | 6° |
| 2026-05-08 03:03 | -29.35032 | 152.84964 | 31513 ft | 446 kts | 7° |
| 2026-05-08 03:03 | -29.32056 | 152.86144 | 30609 ft | 455 kts | 8° |
| 2026-05-08 03:03 | -29.29113 | 152.87344 | 30144 ft | 451 kts | 9° |
| 2026-05-08 03:04 | -29.26177 | 152.88570 | 29734 ft | 444 kts | 10° |
| 2026-05-08 03:04 | -29.23275 | 152.89791 | 28919 ft | 445 kts | 10° |
| 2026-05-08 03:04 | -29.20338 | 152.91021 | 27917 ft | 451 kts | 11° |
| 2026-05-08 03:04 | -29.17393 | 152.92253 | 26822 ft | 459 kts | 12° |
| 2026-05-08 03:05 | -29.14369 | 152.93519 | 25778 ft | 466 kts | 12° |
| 2026-05-08 03:05 | -29.11328 | 152.94798 | 25045 ft | 465 kts | 13° |
| 2026-05-08 03:05 | -29.08297 | 152.96077 | 24457 ft | 460 kts | 13° |
| 2026-05-08 03:05 | -29.05310 | 152.97334 | 23885 ft | 455 kts | 13° |
| 2026-05-08 03:06 | -29.02341 | 152.98579 | 23191 ft | 452 kts | 14° |
| 2026-05-08 03:06 | -28.99388 | 152.99815 | 22486 ft | 449 kts | 14° |
| 2026-05-08 03:06 | -28.96501 | 153.01022 | 21847 ft | 445 kts | 14° |
| 2026-05-08 03:06 | -28.93611 | 153.02230 | 21218 ft | 441 kts | 14° |
| 2026-05-08 03:07 | -28.90847 | 153.03799 | 20533 ft | 449 kts | 32° |
| 2026-05-08 03:07 | -28.88663 | 153.06373 | 19988 ft | 453 kts | 53° |
| 2026-05-08 03:07 | -28.87224 | 153.09509 | 19477 ft | 451 kts | 69° |
| 2026-05-08 03:07 | -28.86610 | 153.12989 | 19011 ft | 445 kts | 85° |
| 2026-05-08 03:08 | -28.86348 | 153.16469 | 18753 ft | 434 kts | 85° |
| 2026-05-08 03:08 | -28.86102 | 153.19886 | 18286 ft | 430 kts | 86° |
| 2026-05-08 03:08 | -28.85846 | 153.23269 | 17696 ft | 427 kts | 85° |
| 2026-05-08 03:08 | -28.85573 | 153.26638 | 17130 ft | 425 kts | 85° |
| 2026-05-08 03:09 | -28.85289 | 153.29979 | 16620 ft | 421 kts | 85° |
| 2026-05-08 03:09 | -28.85004 | 153.33244 | 16326 ft | 412 kts | 85° |
| 2026-05-08 03:09 | -28.84723 | 153.36437 | 16243 ft | 397 kts | 85° |
| 2026-05-08 03:09 | -28.84450 | 153.39546 | 15963 ft | 390 kts | 85° |
| 2026-05-08 03:10 | -28.84091 | 153.42600 | 15521 ft | 388 kts | 75° |
| 2026-05-08 03:10 | -28.82945 | 153.45358 | 15029 ft | 385 kts | 50° |
| 2026-05-08 03:10 | -28.81086 | 153.47473 | 14771 ft | 372 kts | 32° |
| 2026-05-08 03:10 | -28.78854 | 153.48858 | 14544 ft | 361 kts | 17° |
| 2026-05-08 03:11 | -28.76546 | 153.49874 | 14289 ft | 359 kts | 15° |
| 2026-05-08 03:11 | -28.74189 | 153.50863 | 14038 ft | 361 kts | 16° |
| 2026-05-08 03:11 | -28.71823 | 153.51874 | 13813 ft | 364 kts | 17° |
| 2026-05-08 03:11 | -28.69452 | 153.52914 | 13528 ft | 364 kts | 17° |
| 2026-05-08 03:12 | -28.67116 | 153.53950 | 13085 ft | 362 kts | 17° |
| 2026-05-08 03:12 | -28.64783 | 153.54989 | 12634 ft | 356 kts | 17° |
| 2026-05-08 03:12 | -28.62493 | 153.56007 | 12064 ft | 351 kts | 17° |
| 2026-05-08 03:12 | -28.60240 | 153.57007 | 11495 ft | 345 kts | 17° |
| 2026-05-08 03:13 | -28.58012 | 153.57994 | 10942 ft | 341 kts | 18° |
| 2026-05-08 03:13 | -28.55813 | 153.58967 | 10398 ft | 336 kts | 18° |
| 2026-05-08 03:13 | -28.53640 | 153.59927 | 9845 ft | 333 kts | 18° |
| 2026-05-08 03:13 | -28.51532 | 153.60839 | 9537 ft | 320 kts | 16° |
| 2026-05-08 03:14 | -28.49449 | 153.61635 | 9358 ft | 304 kts | 15° |
| 2026-05-08 03:14 | -28.47495 | 153.62350 | 9180 ft | 295 kts | 15° |
| 2026-05-08 03:14 | -28.45548 | 153.63065 | 9014 ft | 291 kts | 15° |
| 2026-05-08 03:14 | -28.43694 | 153.64015 | 8826 ft | 296 kts | 36° |
| 2026-05-08 03:15 | -28.42337 | 153.65753 | 8671 ft | 296 kts | 63° |
| 2026-05-08 03:15 | -28.41775 | 153.67991 | 8531 ft | 296 kts | 91° |
| 2026-05-08 03:15 | -28.42116 | 153.70263 | 8385 ft | 291 kts | 118° |
| 2026-05-08 03:15 | -28.43246 | 153.72068 | 8225 ft | 279 kts | 144° |
| 2026-05-08 03:16 | -28.44908 | 153.73060 | 8057 ft | 264 kts | 172° |
| 2026-05-08 03:16 | -28.46695 | 153.73080 | 7908 ft | 253 kts | 193° |
| 2026-05-08 03:16 | -28.48324 | 153.72412 | 7743 ft | 248 kts | 208° |
| 2026-05-08 03:16 | -28.49807 | 153.71412 | 7582 ft | 248 kts | 221° |
| 2026-05-08 03:17 | -28.50774 | 153.69810 | 7419 ft | 250 kts | 250° |
| 2026-05-08 03:17 | -28.50904 | 153.67863 | 7269 ft | 256 kts | 277° |
| 2026-05-08 03:17 | -28.50143 | 153.66006 | 7112 ft | 266 kts | 306° |
| 2026-05-08 03:17 | -28.48669 | 153.64693 | 6967 ft | 275 kts | 330° |
| 2026-05-08 03:18 | -28.46779 | 153.64134 | 6682 ft | 289 kts | 356° |
| 2026-05-08 03:18 | -28.44771 | 153.64364 | 6384 ft | 291 kts | 7° |
| 2026-05-08 03:18 | -28.42803 | 153.64723 | 6063 ft | 288 kts | 7° |
| 2026-05-08 03:18 | -28.40828 | 153.65082 | 5733 ft | 284 kts | 7° |
| 2026-05-08 03:19 | -28.38901 | 153.65467 | 5378 ft | 278 kts | 13° |
| 2026-05-08 03:19 | -28.37064 | 153.66115 | 5007 ft | 274 kts | 18° |
| 2026-05-08 03:19 | -28.35269 | 153.66816 | 4638 ft | 272 kts | 18° |
| 2026-05-08 03:19 | -28.33485 | 153.67495 | 4276 ft | 274 kts | 17° |
| 2026-05-08 03:20 | -28.31672 | 153.68167 | 4055 ft | 270 kts | 17° |
| 2026-05-08 03:20 | -28.29912 | 153.68811 | 3997 ft | 263 kts | 16° |
| 2026-05-08 03:20 | -28.28134 | 153.69179 | 3967 ft | 258 kts | 352° |
| 2026-05-08 03:20 | -28.26421 | 153.68669 | 3944 ft | 254 kts | 338° |
| 2026-05-08 03:21 | -28.24751 | 153.67989 | 3871 ft | 257 kts | 338° |
| 2026-05-08 03:21 | -28.23634 | 153.67529 | 3831 ft | 258 kts | 338° |
| 2026-05-08 03:21 | -28.21942 | 153.66837 | 3757 ft | 258 kts | 338° |
| 2026-05-08 03:21 | -28.20248 | 153.66150 | 3684 ft | 259 kts | 338° |
| 2026-05-08 03:22 | -28.17999 | 153.65245 | 3602 ft | 259 kts | 338° |
| 2026-05-08 03:22 | -28.16853 | 153.64786 | 3564 ft | 259 kts | 338° |
| 2026-05-08 03:22 | -28.15146 | 153.64101 | 3493 ft | 259 kts | 338° |
| 2026-05-08 03:22 | -28.13461 | 153.63427 | 3421 ft | 255 kts | 338° |
| 2026-05-08 03:23 | -28.11821 | 153.62770 | 3330 ft | 251 kts | 338° |
| 2026-05-08 03:23 | -28.10174 | 153.62111 | 3271 ft | 251 kts | 338° |
| 2026-05-08 03:23 | -28.08528 | 153.61451 | 3212 ft | 250 kts | 339° |
| 2026-05-08 03:23 | -28.06882 | 153.60793 | 3144 ft | 250 kts | 339° |
| 2026-05-08 03:24 | -28.05238 | 153.60136 | 3083 ft | 251 kts | 339° |
| 2026-05-08 03:24 | -28.03608 | 153.59426 | 3014 ft | 250 kts | 329° |
| 2026-05-08 03:24 | -28.02395 | 153.58076 | 2943 ft | 245 kts | 296° |
| 2026-05-08 03:24 | -28.01946 | 153.56265 | 2910 ft | 242 kts | 274° |
| 2026-05-08 03:25 | -28.01928 | 153.54359 | 2856 ft | 242 kts | 268° |
| 2026-05-08 03:25 | -28.01978 | 153.52473 | 2770 ft | 234 kts | 268° |
| 2026-05-08 03:25 | -28.02021 | 153.50671 | 2699 ft | 225 kts | 268° |
| 2026-05-08 03:25 | -28.02052 | 153.48936 | 2643 ft | 214 kts | 269° |
| 2026-05-08 03:26 | -28.02076 | 153.47332 | 2604 ft | 198 kts | 269° |
| 2026-05-08 03:26 | -28.02096 | 153.45819 | 2559 ft | 189 kts | 269° |
| 2026-05-08 03:26 | -28.02275 | 153.44369 | 2486 ft | 187 kts | 243° |
| 2026-05-08 03:26 | -28.03244 | 153.43454 | 2440 ft | 188 kts | 195° |
| 2026-05-08 03:27 | -28.04563 | 153.43561 | 2295 ft | 191 kts | 167° |
| 2026-05-08 03:27 | -28.05807 | 153.44021 | 2035 ft | 183 kts | 159° |
| 2026-05-08 03:27 | -28.06948 | 153.44572 | 1812 ft | 173 kts | 155° |
| 2026-05-08 03:27 | -28.07969 | 153.45163 | 1634 ft | 160 kts | 152° |
| 2026-05-08 03:28 | -28.08927 | 153.45769 | 1515 ft | 158 kts | 151° |
| 2026-05-08 03:28 | -28.09887 | 153.46383 | 1338 ft | 158 kts | 151° |
| 2026-05-08 03:28 | -28.10836 | 153.46991 | 1118 ft | 154 kts | 151° |
| 2026-05-08 03:28 | -28.11759 | 153.47581 | 923 ft | 151 kts | 150° |
| 2026-05-08 03:29 | -28.12684 | 153.48161 | 747 ft | 153 kts | 152° |
| 2026-05-08 03:29 | -28.13602 | 153.48753 | 541 ft | 157 kts | 148° |
| 2026-05-08 03:29 | -28.14584 | 153.49389 | 334 ft | 168 kts | 149° |
| 2026-05-08 03:29 | -28.15567 | 153.50013 | 161 ft | 162 kts | 148° |
| 2026-05-08 03:30 | -28.17228 | 153.51069 | 26 ft | 48 kts | 150° |
| 2026-05-08 03:30 | -28.17431 | 153.51335 | 30 ft | 14 kts | 59° |
| 2026-05-08 03:31 | -28.17309 | 153.51339 | 26 ft | 8 kts | 330° |
| 2026-05-08 03:31 | -28.17209 | 153.51275 | 26 ft | 8 kts | 330° |
| 2026-05-08 03:32 | -28.17162 | 153.51245 | 26 ft | 8 kts | 331° |
| 2026-05-08 03:32 | -28.17113 | 153.51228 | 26 ft | 7 kts | 12° |
| 2026-05-08 03:32 | -28.17076 | 153.51258 | 25 ft | 6 kts | 39° |
| 2026-05-08 03:32 | -28.17038 | 153.51272 | 27 ft | 6 kts | 357° |
| 2026-05-08 03:33 | -28.17001 | 153.51252 | 28 ft | 6 kts | 327° |
| 2026-05-08 03:33 | -28.16974 | 153.51234 | 30 ft | 4 kts | 329° |
| 2026-05-08 03:33 | -28.16953 | 153.51219 | 30 ft | 4 kts | 330° |
| 2026-05-08 03:33 | -28.16931 | 153.51205 | 26 ft | 4 kts | 330° |
| 2026-05-08 03:34 | -28.16910 | 153.51192 | 26 ft | 3 kts | 330° |
| 2026-05-08 03:34 | -28.16891 | 153.51180 | 30 ft | 3 kts | 330° |
| 2026-05-08 03:34 | -28.16872 | 153.51168 | 29 ft | 3 kts | 331° |
| 2026-05-08 03:34 | -28.16852 | 153.51161 | 26 ft | 3 kts | 356° |
| 2026-05-08 03:35 | -28.16834 | 153.51169 | 28 ft | 3 kts | 35° |
| 2026-05-08 03:35 | -28.16821 | 153.51187 | 26 ft | 3 kts | 56° |
| 2026-05-08 03:35 | -28.16811 | 153.51205 | 27 ft | 3 kts | 59° |
| 2026-05-08 03:35 | -28.16802 | 153.51224 | 27 ft | 3 kts | 62° |
| 2026-05-08 03:36 | -28.16794 | 153.51242 | 25 ft | 2 kts | 61° |
| 2026-05-08 03:36 | -28.16789 | 153.51251 | 25 ft | 0 kts | 60° |